createdAt,value
2022-09-23T00:00:05.387Z,2.43
2022-09-23T00:05:07.562Z,2.23
2022-09-23T00:10:09.298Z,2.90
2022-09-23T00:15:11.526Z,2.40
2022-09-23T00:20:14.230Z,2.10
2022-09-23T00:25:15.709Z,2.47
2022-09-23T00:30:18.449Z,2.13
2022-09-23T00:35:20.228Z,2.10
2022-09-23T00:40:21.864Z,2.67
2022-09-23T00:45:23.578Z,2.23
2022-09-23T00:50:37.126Z,2.47
2022-09-23T00:55:57.525Z,2.30
2022-09-23T01:01:00.550Z,2.07
2022-09-23T01:06:02.239Z,2.23
2022-09-23T01:11:31.546Z,2.20
2022-09-23T01:16:51.221Z,2.30
2022-09-23T01:22:01.678Z,2.40
2022-09-23T01:27:22.115Z,2.40
2022-09-23T01:32:49.642Z,2.50
2022-09-23T01:38:00.192Z,2.80
2022-09-23T01:43:08.758Z,2.80
2022-09-23T01:48:22.849Z,2.30
2022-09-23T01:53:33.013Z,2.17
2022-09-23T01:58:46.467Z,2.30
2022-09-23T02:04:04.094Z,2.47
2022-09-23T02:09:12.002Z,2.30
2022-09-23T02:14:23.246Z,2.50
2022-09-23T02:19:40.207Z,2.30
2022-09-23T02:24:41.830Z,2.50
2022-09-23T02:29:54.017Z,2.60
2022-09-23T02:35:13.893Z,2.60
2022-09-23T02:40:40.922Z,2.50
2022-09-23T02:45:42.623Z,2.43
2022-09-23T02:50:44.800Z,2.50
2022-09-23T02:55:47.616Z,2.50
2022-09-23T03:01:31.809Z,2.60
2022-09-23T03:06:51.321Z,2.60
2022-09-23T03:12:08.473Z,2.37
2022-09-23T03:17:37.529Z,2.50
2022-09-23T03:22:48.842Z,2.50
2022-09-23T03:27:50.911Z,2.77
2022-09-23T03:32:53.170Z,2.73
2022-09-23T03:38:06.253Z,2.40
2022-09-23T03:43:07.939Z,2.30
2022-09-23T03:48:09.458Z,2.60
2022-09-23T03:53:14.179Z,2.53
2022-09-23T03:58:15.954Z,2.60
2022-09-23T04:03:19.075Z,2.60
2022-09-23T04:08:20.616Z,2.30
2022-09-23T04:13:22.129Z,2.83
2022-09-23T04:18:23.657Z,3.00
2022-09-23T04:23:28.357Z,2.83
2022-09-23T04:28:29.900Z,2.70
2022-09-23T04:33:31.826Z,2.60
2022-09-23T04:38:33.526Z,2.80
2022-09-23T04:43:35.064Z,3.03
2022-09-23T04:48:37.625Z,3.10
2022-09-23T04:53:41.503Z,3.03
2022-09-23T04:58:43.890Z,3.10
2022-09-23T05:03:46.461Z,3.30
2022-09-23T05:08:51.250Z,2.97
2022-09-23T05:13:54.142Z,2.83
2022-09-23T05:18:55.907Z,3.40
2022-09-23T05:24:00.502Z,3.73
2022-09-23T05:29:02.091Z,4.00
2022-09-23T05:34:05.208Z,3.70
2022-09-23T05:39:08.436Z,3.70
2022-09-23T05:44:10.404Z,3.77
2022-09-23T05:49:12.070Z,3.63
2022-09-23T05:54:13.751Z,3.70
2022-09-23T05:59:15.295Z,3.53
2022-09-23T06:04:17.287Z,3.40
2022-09-23T06:09:19.056Z,3.20
2022-09-23T06:14:20.776Z,3.43
2022-09-23T06:19:29.756Z,3.50
2022-09-23T06:24:31.938Z,3.10
2022-09-23T06:29:33.657Z,3.03
2022-09-23T06:34:48.148Z,2.90
2022-09-23T06:39:54.755Z,3.10
2022-09-23T06:44:56.401Z,2.70
2022-09-23T06:49:57.943Z,2.67
2022-09-23T06:55:00.924Z,3.00
2022-09-23T07:00:03.162Z,3.07
2022-09-23T07:05:04.998Z,3.10
2022-09-23T07:10:07.129Z,2.70
2022-09-23T07:15:09.848Z,2.40
2022-09-23T07:20:11.520Z,2.30
2022-09-23T07:25:13.344Z,2.10
2022-09-23T07:30:24.078Z,2.40
2022-09-23T07:35:28.042Z,1.87
2022-09-23T07:40:29.693Z,2.30
2022-09-23T07:45:33.205Z,2.23
2022-09-23T07:50:34.763Z,2.40
2022-09-23T07:55:36.406Z,2.13
2022-09-23T08:00:38.029Z,2.20
2022-09-23T08:05:41.182Z,2.10
2022-09-23T08:10:55.203Z,2.20
2022-09-23T08:16:06.936Z,2.00
2022-09-23T08:21:32.292Z,1.90
2022-09-23T08:32:39.449Z,2.00
2022-09-23T08:37:47.799Z,1.80
2022-09-23T08:42:49.723Z,2.20
2022-09-23T08:48:10.762Z,1.60
2022-09-23T08:53:29.143Z,1.60
2022-09-23T08:58:58.112Z,1.60
2022-09-23T09:04:27.700Z,1.60
2022-09-23T09:09:51.223Z,1.47
2022-09-23T09:14:59.157Z,1.67
2022-09-23T09:20:19.347Z,1.87
2022-09-23T09:25:41.339Z,1.50
2022-09-23T09:30:48.339Z,1.70
2022-09-23T09:36:11.921Z,1.70
2022-09-23T09:41:16.000Z,1.73
2022-09-23T09:46:34.004Z,1.73
2022-09-23T09:51:37.104Z,1.80
2022-09-23T09:56:39.864Z,1.50
2022-09-23T10:01:41.485Z,1.60
2022-09-23T10:06:43.209Z,2.23
2022-09-23T10:12:22.892Z,1.50
2022-09-23T10:17:35.393Z,1.60
2022-09-23T10:22:40.002Z,1.60
2022-09-23T10:27:42.641Z,1.60
2022-09-23T10:32:45.080Z,1.50
2022-09-23T10:37:57.101Z,1.47
2022-09-23T10:43:51.400Z,1.60
2022-09-23T10:49:22.492Z,1.60
2022-09-23T10:54:24.005Z,1.53
2022-09-23T10:59:48.823Z,1.57
2022-09-23T11:05:15.402Z,1.50
2022-09-23T11:10:46.846Z,1.90
2022-09-23T11:16:19.406Z,1.60
2022-09-23T11:21:44.263Z,1.70
2022-09-23T11:27:07.054Z,1.40
2022-09-23T11:32:20.996Z,1.10
2022-09-23T11:37:29.307Z,1.17
2022-09-23T11:42:36.493Z,1.70
2022-09-23T11:47:43.864Z,1.43
2022-09-23T11:52:51.927Z,1.37
2022-09-23T11:57:57.403Z,0.93
2022-09-23T12:03:18.073Z,1.00
2022-09-23T12:08:33.968Z,0.90
2022-09-23T12:14:01.393Z,1.40
2022-09-23T12:19:13.895Z,1.17
2022-09-23T12:25:01.006Z,0.77
2022-09-23T12:30:06.124Z,1.20
2022-09-23T12:35:32.442Z,1.07
2022-09-23T12:40:43.652Z,1.30
2022-09-23T12:45:45.544Z,1.03
2022-09-23T12:50:51.480Z,1.00
2022-09-23T12:55:54.463Z,0.83
2022-09-23T13:01:17.545Z,1.03
2022-09-23T13:06:37.542Z,0.70
2022-09-23T13:11:43.166Z,1.00
2022-09-23T13:16:45.862Z,0.80
2022-09-23T13:21:47.417Z,0.87
2022-09-23T13:26:51.604Z,1.20
2022-09-23T13:31:57.788Z,1.13
2022-09-23T13:37:11.989Z,1.00
2022-09-23T13:42:27.058Z,1.37
2022-09-23T13:47:29.684Z,1.10
2022-09-23T13:52:32.701Z,0.97
2022-09-23T13:57:35.227Z,1.00
2022-09-23T14:02:43.139Z,1.00
2022-09-23T14:07:44.898Z,0.70
2022-09-23T14:12:47.782Z,1.27
2022-09-23T14:18:02.292Z,0.90
2022-09-23T14:23:09.834Z,1.10
2022-09-23T14:28:15.429Z,1.30
2022-09-23T14:33:19.579Z,1.10
2022-09-23T14:38:43.590Z,1.10
2022-09-23T14:43:54.714Z,0.90
2022-09-23T14:49:07.670Z,1.10
2022-09-23T14:54:38.700Z,0.97
2022-09-23T14:59:49.382Z,1.80
2022-09-23T15:04:50.917Z,1.17
2022-09-23T15:09:52.522Z,1.30
2022-09-23T15:14:58.491Z,1.17
2022-09-23T15:20:06.186Z,1.20
2022-09-23T15:25:33.970Z,1.30
2022-09-23T15:30:36.609Z,0.93
2022-09-23T15:35:44.019Z,1.13
2022-09-23T15:40:45.816Z,1.50
2022-09-23T15:45:53.030Z,1.40
2022-09-23T15:50:55.451Z,1.60
2022-09-23T15:55:58.564Z,1.50
2022-09-23T16:01:00.893Z,1.60
2022-09-23T16:06:03.146Z,1.20
2022-09-23T16:11:06.043Z,1.63
2022-09-23T16:16:08.449Z,1.57
2022-09-23T16:21:13.517Z,1.23
2022-09-23T16:26:24.275Z,1.10
2022-09-23T16:31:27.117Z,1.37
2022-09-23T16:36:31.279Z,1.20
2022-09-23T16:41:33.022Z,1.63
2022-09-23T16:46:35.191Z,1.53
2022-09-23T16:51:38.310Z,1.33
2022-09-23T16:56:44.270Z,1.70
2022-09-23T17:02:04.302Z,1.90
2022-09-23T17:07:05.922Z,2.80
2022-09-23T17:12:21.465Z,3.17
2022-09-23T17:17:23.181Z,2.73
2022-09-23T17:22:24.858Z,1.83
2022-09-23T17:27:26.406Z,2.00
2022-09-23T17:32:28.087Z,1.90
2022-09-23T17:37:30.420Z,2.00
2022-09-23T17:42:31.964Z,1.97
2022-09-23T17:47:33.868Z,2.70
2022-09-23T17:52:36.578Z,2.80
2022-09-23T17:57:38.218Z,3.90
2022-09-23T18:02:39.827Z,3.77
2022-09-23T18:07:41.343Z,4.10
2022-09-23T18:12:43.030Z,3.53
2022-09-23T18:17:44.942Z,3.63
2022-09-23T18:22:46.476Z,3.27
2022-09-23T18:27:48.208Z,2.90
2022-09-23T18:32:49.979Z,3.00
2022-09-23T18:37:51.633Z,2.73
2022-09-23T18:42:53.173Z,2.93
2022-09-23T18:48:13.146Z,2.97
2022-09-23T18:53:14.695Z,3.57
2022-09-23T18:58:16.254Z,3.47
2022-09-23T19:03:17.809Z,3.27
2022-09-23T19:08:19.801Z,3.23
2022-09-23T19:13:21.505Z,3.03
2022-09-23T19:18:23.754Z,4.07
2022-09-23T19:23:31.910Z,5.57
2022-09-23T19:28:33.521Z,4.37
2022-09-23T19:33:35.211Z,3.77
2022-09-23T19:38:38.349Z,3.20
2022-09-23T19:43:39.946Z,3.40
2022-09-23T19:48:41.714Z,2.60
2022-09-23T19:53:45.629Z,2.80
2022-09-23T19:58:55.651Z,2.90
2022-09-23T20:03:57.492Z,2.83
2022-09-23T20:09:00.730Z,3.00
2022-09-23T20:14:04.011Z,2.90
2022-09-23T20:19:05.860Z,2.67
2022-09-23T20:24:09.560Z,3.20
2022-09-23T20:29:11.947Z,3.23
2022-09-23T20:34:13.625Z,3.27
2022-09-23T20:39:15.260Z,2.90
2022-09-23T20:44:16.933Z,3.60
2022-09-23T20:49:18.770Z,3.13
2022-09-23T20:54:20.330Z,3.53
2022-09-23T20:59:21.946Z,4.00
2022-09-23T21:04:24.427Z,4.07
2022-09-23T21:09:30.922Z,3.87
2022-09-23T21:14:32.813Z,3.80
2022-09-23T21:19:37.451Z,4.40
2022-09-23T21:25:25.645Z,4.70
2022-09-23T21:30:00.983Z,4.50
2022-09-23T21:35:02.488Z,4.23
2022-09-23T21:40:22.932Z,3.90
2022-09-23T21:45:24.653Z,4.07
2022-09-23T21:50:29.873Z,3.47
2022-09-23T21:55:31.325Z,3.87
2022-09-23T22:00:32.863Z,4.00
2022-09-23T22:05:34.411Z,3.80
2022-09-23T22:10:37.414Z,3.33
2022-09-23T22:15:39.032Z,3.60
2022-09-23T22:20:41.678Z,3.50
2022-09-23T22:25:43.315Z,3.23
2022-09-23T22:31:03.596Z,3.47
2022-09-23T22:36:05.337Z,3.50
2022-09-23T22:41:06.783Z,3.33
2022-09-23T22:46:09.245Z,3.87
2022-09-23T22:51:12.222Z,3.50
2022-09-23T22:56:13.683Z,3.67
2022-09-23T23:01:15.312Z,3.37
2022-09-23T23:06:19.444Z,4.33
2022-09-23T23:11:21.570Z,3.60
2022-09-23T23:16:25.308Z,3.83
2022-09-23T23:21:27.228Z,3.10
2022-09-23T23:26:29.211Z,3.70
2022-09-23T23:31:32.064Z,3.30
2022-09-23T23:36:34.462Z,3.57
2022-09-23T23:41:36.372Z,3.70
2022-09-23T23:46:37.926Z,3.60
2022-09-23T23:51:41.048Z,3.70
2022-09-23T23:56:42.806Z,3.60
